createdAt,value
2023-05-20T00:07:28.028Z,97310.69
2023-05-20T00:15:52.157Z,97305.02
2023-05-20T00:24:15.263Z,97305.13
2023-05-20T00:32:38.254Z,97306.34
2023-05-20T00:41:02.884Z,97312.46
2023-05-20T00:49:25.806Z,97309.27
2023-05-20T00:57:49.513Z,97311.52
2023-05-20T01:06:12.501Z,97312.27
2023-05-20T01:14:52.741Z,97302.77
2023-05-20T01:23:15.769Z,97306.40
2023-05-20T01:31:39.284Z,97302.59
2023-05-20T01:40:05.273Z,97300.82
2023-05-20T01:48:28.385Z,97293.36
2023-05-20T01:56:51.830Z,97279.58
2023-05-20T02:05:16.550Z,97271.74
2023-05-20T02:13:39.810Z,97262.12
2023-05-20T02:22:02.773Z,97258.02
2023-05-20T02:30:27.150Z,97263.34
2023-05-20T02:38:50.201Z,97271.90
2023-05-20T02:47:14.447Z,97285.70
2023-05-20T02:55:37.733Z,97296.67
2023-05-20T03:04:00.868Z,97303.48
2023-05-20T03:12:26.271Z,97301.66
2023-05-20T03:20:49.174Z,97300.45
2023-05-20T03:29:12.654Z,97312.44
2023-05-20T03:37:36.844Z,97335.73
2023-05-20T03:46:00.281Z,97353.46
2023-05-20T03:54:23.438Z,97355.66
2023-05-20T04:02:48.377Z,97358.63
2023-05-20T04:11:13.149Z,97358.10
2023-05-20T04:19:38.303Z,97371.21
2023-05-20T04:28:01.717Z,97376.95
2023-05-20T04:36:28.865Z,97384.95
2023-05-20T04:44:52.689Z,97414.68
2023-05-20T04:53:17.633Z,97460.46
2023-05-20T05:01:40.943Z,97511.10
2023-05-20T05:10:04.536Z,97545.63
2023-05-20T05:18:28.357Z,97582.63
2023-05-20T05:26:55.209Z,97604.42
2023-05-20T05:35:18.479Z,97697.07
2023-05-20T05:43:41.551Z,97948.92
2023-05-20T05:52:04.876Z,98273.95
2023-05-20T06:00:28.043Z,98535.89
2023-05-20T06:08:51.590Z,98755.33
2023-05-20T06:17:15.522Z,98969.25
2023-05-20T06:25:39.023Z,99129.11
2023-05-20T06:34:03.312Z,99278.40
2023-05-20T06:42:26.769Z,99497.52
2023-05-20T06:50:59.959Z,99762.12
2023-05-20T06:59:23.131Z,100058.10
2023-05-20T07:07:46.232Z,100237.88
2023-05-20T07:16:09.957Z,100341.77
2023-05-20T07:24:36.874Z,100416.98
2023-05-20T07:33:01.003Z,100620.80
2023-05-20T07:41:24.396Z,100730.42
2023-05-20T07:49:47.509Z,100745.85
2023-05-20T07:58:10.650Z,100863.50
2023-05-20T08:06:35.647Z,100897.77
2023-05-20T08:15:00.202Z,100833.04
2023-05-20T08:23:23.806Z,100937.73
2023-05-20T08:31:47.458Z,101083.37
2023-05-20T08:40:13.580Z,101278.48
2023-05-20T08:48:37.516Z,101312.46
2023-05-20T08:57:00.907Z,101230.52
2023-05-20T09:05:23.832Z,101285.69
2023-05-20T09:13:47.140Z,101282.34
2023-05-20T09:22:11.226Z,101249.79
2023-05-20T09:30:34.812Z,101360.77
2023-05-20T09:39:05.359Z,101471.69
2023-05-20T09:47:28.400Z,101562.42
2023-05-20T09:55:52.474Z,101658.71
2023-05-20T10:04:17.701Z,101721.66
2023-05-20T10:12:46.907Z,101716.15
2023-05-20T10:21:17.832Z,101717.36
2023-05-20T10:29:50.229Z,101736.70
2023-05-20T10:38:13.707Z,101538.38
2023-05-20T10:46:51.460Z,101502.89
2023-05-20T10:55:22.070Z,101414.20
2023-05-20T11:03:49.775Z,101431.14
2023-05-20T11:12:14.644Z,101542.90
2023-05-20T11:20:38.777Z,101682.23
2023-05-20T11:29:02.182Z,101834.65
2023-05-20T11:41:47.508Z,101865.23
2023-05-20T11:50:11.421Z,101755.88
2023-05-20T11:58:34.374Z,101736.41
2023-05-20T12:06:57.295Z,101793.23
2023-05-20T12:15:20.289Z,101793.58
2023-05-20T12:23:43.142Z,101632.96
2023-05-20T12:32:06.483Z,101691.39
2023-05-20T12:40:29.846Z,101683.14
2023-05-20T12:48:53.226Z,101476.61
2023-05-20T12:57:16.689Z,101330.30
2023-05-20T13:05:39.561Z,101308.16
2023-05-20T13:14:02.427Z,101289.11
2023-05-20T13:22:25.795Z,101382.19
2023-05-20T13:30:48.730Z,101595.70
2023-05-20T13:39:11.975Z,101525.96
2023-05-20T13:47:34.904Z,101395.89
2023-05-20T13:55:58.841Z,101278.98
2023-05-20T14:04:22.297Z,101188.12
2023-05-20T14:12:48.132Z,101346.82
2023-05-20T14:21:12.191Z,101516.08
2023-05-20T14:29:35.117Z,101559.20
2023-05-20T14:37:59.369Z,101480.92
2023-05-20T14:46:23.006Z,101459.30
2023-05-20T14:54:46.179Z,101410.52
2023-05-20T15:03:09.201Z,101376.02
2023-05-20T15:11:32.500Z,101338.52
2023-05-20T15:19:55.498Z,101301.48
2023-05-20T15:28:19.898Z,101209.55
2023-05-20T15:36:42.840Z,101126.74
2023-05-20T15:45:07.376Z,101111.77
2023-05-20T15:53:30.364Z,101166.05
2023-05-20T16:01:54.726Z,101180.70
2023-05-20T16:10:18.709Z,101154.56
2023-05-20T16:18:41.587Z,101131.06
2023-05-20T16:27:04.993Z,101131.89
2023-05-20T16:35:27.929Z,101125.91
2023-05-20T16:43:50.775Z,101078.07
2023-05-20T16:52:13.740Z,101000.72
2023-05-20T17:00:36.631Z,100918.98
2023-05-20T17:09:00.272Z,100800.96
2023-05-20T17:17:23.138Z,100693.82
2023-05-20T17:25:47.628Z,100585.29
2023-05-20T17:34:10.581Z,100466.93
2023-05-20T17:42:34.063Z,100342.61
2023-05-20T17:50:58.220Z,100211.58
2023-05-20T17:59:21.467Z,100066.77
2023-05-20T18:07:44.374Z,99926.30
2023-05-20T18:16:07.526Z,99777.42
2023-05-20T18:24:30.739Z,99638.07
2023-05-20T18:32:54.003Z,99508.92
2023-05-20T18:41:16.897Z,99381.27
2023-05-20T18:49:39.727Z,99257.70
2023-05-20T18:58:03.067Z,99137.69
2023-05-20T19:06:25.909Z,99015.34
2023-05-20T19:14:49.068Z,98900.51
2023-05-20T19:23:12.013Z,98790.00
2023-05-20T19:31:35.081Z,98686.63
2023-05-20T19:39:58.019Z,98576.86
2023-05-20T19:48:22.511Z,98492.40
2023-05-20T19:56:45.580Z,98448.02
2023-05-20T20:05:08.850Z,98399.08
2023-05-20T20:13:32.228Z,98335.42
2023-05-20T20:21:58.793Z,98273.77
2023-05-20T20:30:21.746Z,98229.90
2023-05-20T20:38:46.944Z,98206.75
2023-05-20T20:47:10.061Z,98165.54
2023-05-20T20:55:34.404Z,98080.65
2023-05-20T21:03:58.791Z,97984.95
2023-05-20T21:12:21.964Z,97925.80
2023-05-20T21:20:44.847Z,97884.66
2023-05-20T21:29:10.050Z,97801.30
2023-05-20T21:37:33.004Z,97712.39
2023-05-20T21:45:56.218Z,97676.89
2023-05-20T21:54:19.082Z,97679.08
2023-05-20T22:02:42.063Z,97639.48
2023-05-20T22:11:05.931Z,97573.42
2023-05-20T22:19:30.800Z,97519.60
2023-05-20T22:27:53.792Z,97458.39
2023-05-20T22:36:16.622Z,97375.08
2023-05-20T22:44:39.650Z,97304.85
2023-05-20T22:53:03.054Z,97260.84
2023-05-20T23:01:26.052Z,97207.66
2023-05-20T23:09:49.099Z,97135.67
2023-05-20T23:18:12.232Z,97069.52
2023-05-20T23:26:37.706Z,97025.52
2023-05-20T23:35:04.899Z,96986.26
2023-05-20T23:43:27.827Z,96936.38
2023-05-20T23:51:51.915Z,96884.26
